sensor_id;sensor_type;location;lat;lon;timestamp;temperature;humidity
16970;DHT22;8601;48.718;8.992;2022-12-18T00:00:14;-9.60;99.90
16970;DHT22;8601;48.718;8.992;2022-12-18T00:02:43;-9.60;99.90
16970;DHT22;8601;48.718;8.992;2022-12-18T00:05:10;-9.50;99.90
16970;DHT22;8601;48.718;8.992;2022-12-18T00:07:36;-9.50;99.90
16970;DHT22;8601;48.718;8.992;2022-12-18T00:10:06;-9.60;99.90
16970;DHT22;8601;48.718;8.992;2022-12-18T00:12:34;-9.60;99.90
16970;DHT22;8601;48.718;8.992;2022-12-18T00:15:06;-9.70;99.90
16970;DHT22;8601;48.718;8.992;2022-12-18T00:17:33;-9.60;99.90
16970;DHT22;8601;48.718;8.992;2022-12-18T00:20:00;-9.60;99.90
16970;DHT22;8601;48.718;8.992;2022-12-18T00:22:27;-9.60;99.90
16970;DHT22;8601;48.718;8.992;2022-12-18T00:24:53;-9.60;99.90
16970;DHT22;8601;48.718;8.992;2022-12-18T00:27:20;-9.60;99.90
16970;DHT22;8601;48.718;8.992;2022-12-18T00:29:48;-9.60;99.90
16970;DHT22;8601;48.718;8.992;2022-12-18T00:32:17;-9.70;99.90
16970;DHT22;8601;48.718;8.992;2022-12-18T00:34:44;-9.60;99.90
16970;DHT22;8601;48.718;8.992;2022-12-18T00:37:11;-9.50;99.90
16970;DHT22;8601;48.718;8.992;2022-12-18T00:39:38;-9.50;99.90
16970;DHT22;8601;48.718;8.992;2022-12-18T00:42:05;-9.60;99.90
16970;DHT22;8601;48.718;8.992;2022-12-18T00:44:50;-9.70;99.90
16970;DHT22;8601;48.718;8.992;2022-12-18T00:47:18;-9.60;99.90
16970;DHT22;8601;48.718;8.992;2022-12-18T00:49:45;-9.50;99.90
16970;DHT22;8601;48.718;8.992;2022-12-18T00:52:13;-9.40;99.90
16970;DHT22;8601;48.718;8.992;2022-12-18T00:54:39;-9.50;99.90
16970;DHT22;8601;48.718;8.992;2022-12-18T00:57:06;-9.40;99.90
16970;DHT22;8601;48.718;8.992;2022-12-18T00:59:34;-9.40;99.90
16970;DHT22;8601;48.718;8.992;2022-12-18T01:02:01;-9.40;99.90
16970;DHT22;8601;48.718;8.992;2022-12-18T01:04:31;-9.40;99.90
16970;DHT22;8601;48.718;8.992;2022-12-18T01:06:57;-9.70;99.90
16970;DHT22;8601;48.718;8.992;2022-12-18T01:09:24;-9.80;99.90
16970;DHT22;8601;48.718;8.992;2022-12-18T01:11:51;-9.80;99.90
16970;DHT22;8601;48.718;8.992;2022-12-18T01:14:19;-9.70;99.90
16970;DHT22;8601;48.718;8.992;2022-12-18T01:16:46;-9.00;99.90
16970;DHT22;8601;48.718;8.992;2022-12-18T01:19:14;-9.20;99.90
16970;DHT22;8601;48.718;8.992;2022-12-18T01:21:42;-9.30;99.90
16970;DHT22;8601;48.718;8.992;2022-12-18T01:24:12;-9.40;99.90
16970;DHT22;8601;48.718;8.992;2022-12-18T01:26:38;-9.40;99.90
16970;DHT22;8601;48.718;8.992;2022-12-18T01:29:07;-9.40;99.90
16970;DHT22;8601;48.718;8.992;2022-12-18T01:31:34;-9.40;99.90
16970;DHT22;8601;48.718;8.992;2022-12-18T01:34:01;-9.40;99.90
16970;DHT22;8601;48.718;8.992;2022-12-18T01:36:31;-9.40;99.90
16970;DHT22;8601;48.718;8.992;2022-12-18T01:39:01;-9.40;99.90
16970;DHT22;8601;48.718;8.992;2022-12-18T01:41:30;-9.50;99.90
16970;DHT22;8601;48.718;8.992;2022-12-18T01:47:38;-9.50;99.90
16970;DHT22;8601;48.718;8.992;2022-12-18T01:50:09;-9.60;99.90
16970;DHT22;8601;48.718;8.992;2022-12-18T01:52:37;-9.50;99.90
16970;DHT22;8601;48.718;8.992;2022-12-18T01:55:08;-9.40;99.90
16970;DHT22;8601;48.718;8.992;2022-12-18T01:57:36;-9.50;99.90
16970;DHT22;8601;48.718;8.992;2022-12-18T02:00:06;-9.60;99.90
16970;DHT22;8601;48.718;8.992;2022-12-18T02:02:34;-9.60;99.90
16970;DHT22;8601;48.718;8.992;2022-12-18T02:05:03;-9.60;99.90
16970;DHT22;8601;48.718;8.992;2022-12-18T02:07:37;-9.60;99.90
16970;DHT22;8601;48.718;8.992;2022-12-18T02:10:13;-9.50;99.90
16970;DHT22;8601;48.718;8.992;2022-12-18T02:12:45;-9.40;99.90
16970;DHT22;8601;48.718;8.992;2022-12-18T02:15:17;-9.40;99.90
16970;DHT22;8601;48.718;8.992;2022-12-18T02:17:52;-9.30;99.90
16970;DHT22;8601;48.718;8.992;2022-12-18T02:20:24;-9.30;99.90
16970;DHT22;8601;48.718;8.992;2022-12-18T02:23:04;-9.30;99.90
16970;DHT22;8601;48.718;8.992;2022-12-18T02:28:15;-9.50;99.90
16970;DHT22;8601;48.718;8.992;2022-12-18T02:30:53;-9.60;99.90
16970;DHT22;8601;48.718;8.992;2022-12-18T02:33:26;-9.70;99.90
16970;DHT22;8601;48.718;8.992;2022-12-18T02:35:55;-9.70;99.90
16970;DHT22;8601;48.718;8.992;2022-12-18T02:38:23;-9.80;99.90
16970;DHT22;8601;48.718;8.992;2022-12-18T02:40:53;-9.80;99.90
16970;DHT22;8601;48.718;8.992;2022-12-18T02:43:22;-9.90;99.90
16970;DHT22;8601;48.718;8.992;2022-12-18T02:45:58;-9.80;99.90
16970;DHT22;8601;48.718;8.992;2022-12-18T02:48:30;-9.80;99.90
16970;DHT22;8601;48.718;8.992;2022-12-18T02:51:03;-9.70;99.90
16970;DHT22;8601;48.718;8.992;2022-12-18T02:53:38;-9.80;99.90
16970;DHT22;8601;48.718;8.992;2022-12-18T02:56:11;-9.80;99.90
16970;DHT22;8601;48.718;8.992;2022-12-18T02:58:45;-9.80;99.90
16970;DHT22;8601;48.718;8.992;2022-12-18T03:01:19;-9.90;99.90
16970;DHT22;8601;48.718;8.992;2022-12-18T03:03:51;-9.80;99.90
16970;DHT22;8601;48.718;8.992;2022-12-18T03:06:28;-9.70;99.90
16970;DHT22;8601;48.718;8.992;2022-12-18T03:08:58;-9.70;99.90
16970;DHT22;8601;48.718;8.992;2022-12-18T03:11:28;-9.60;99.90
16970;DHT22;8601;48.718;8.992;2022-12-18T03:14:16;-9.40;99.90
16970;DHT22;8601;48.718;8.992;2022-12-18T03:16:46;-9.20;99.90
16970;DHT22;8601;48.718;8.992;2022-12-18T03:19:16;-9.10;99.90
16970;DHT22;8601;48.718;8.992;2022-12-18T03:21:46;-9.00;99.90
16970;DHT22;8601;48.718;8.992;2022-12-18T03:24:17;-8.90;99.90
16970;DHT22;8601;48.718;8.992;2022-12-18T03:26:47;-8.90;99.90
16970;DHT22;8601;48.718;8.992;2022-12-18T03:29:20;-8.70;99.90
16970;DHT22;8601;48.718;8.992;2022-12-18T03:31:53;-8.70;99.90
16970;DHT22;8601;48.718;8.992;2022-12-18T03:34:24;-8.70;99.90
16970;DHT22;8601;48.718;8.992;2022-12-18T03:36:53;-8.70;99.90
16970;DHT22;8601;48.718;8.992;2022-12-18T03:39:20;-8.60;99.90
16970;DHT22;8601;48.718;8.992;2022-12-18T03:41:52;-8.60;99.90
16970;DHT22;8601;48.718;8.992;2022-12-18T03:44:29;-8.60;99.90
16970;DHT22;8601;48.718;8.992;2022-12-18T03:47:08;-8.60;99.90
16970;DHT22;8601;48.718;8.992;2022-12-18T03:49:40;-8.60;99.90
16970;DHT22;8601;48.718;8.992;2022-12-18T03:52:13;-8.70;99.90
16970;DHT22;8601;48.718;8.992;2022-12-18T03:54:43;-8.70;99.90
16970;DHT22;8601;48.718;8.992;2022-12-18T03:57:14;-8.70;99.90
16970;DHT22;8601;48.718;8.992;2022-12-18T03:59:44;-8.50;99.90
16970;DHT22;8601;48.718;8.992;2022-12-18T04:02:14;-8.70;99.90
16970;DHT22;8601;48.718;8.992;2022-12-18T04:04:42;-8.70;99.90
16970;DHT22;8601;48.718;8.992;2022-12-18T04:07:10;-8.70;99.90
16970;DHT22;8601;48.718;8.992;2022-12-18T04:09:39;-8.60;99.90
16970;DHT22;8601;48.718;8.992;2022-12-18T04:12:08;-8.70;99.90
16970;DHT22;8601;48.718;8.992;2022-12-18T04:14:35;-8.70;99.90
16970;DHT22;8601;48.718;8.992;2022-12-18T04:17:05;-8.80;99.90
16970;DHT22;8601;48.718;8.992;2022-12-18T04:19:32;-8.70;99.90
16970;DHT22;8601;48.718;8.992;2022-12-18T04:21:59;-8.70;99.90
16970;DHT22;8601;48.718;8.992;2022-12-18T04:24:26;-8.60;99.90
16970;DHT22;8601;48.718;8.992;2022-12-18T04:26:53;-8.50;99.90
16970;DHT22;8601;48.718;8.992;2022-12-18T04:29:20;-8.50;99.90
16970;DHT22;8601;48.718;8.992;2022-12-18T04:31:48;-8.50;99.90
16970;DHT22;8601;48.718;8.992;2022-12-18T04:34:16;-8.40;99.90
16970;DHT22;8601;48.718;8.992;2022-12-18T04:36:43;-8.30;99.90
16970;DHT22;8601;48.718;8.992;2022-12-18T04:39:10;-8.30;99.90
16970;DHT22;8601;48.718;8.992;2022-12-18T04:41:37;-8.30;99.90
16970;DHT22;8601;48.718;8.992;2022-12-18T04:44:04;-8.30;99.90
16970;DHT22;8601;48.718;8.992;2022-12-18T04:46:31;-8.30;99.90
16970;DHT22;8601;48.718;8.992;2022-12-18T04:48:58;-8.20;99.90
16970;DHT22;8601;48.718;8.992;2022-12-18T04:51:26;-8.20;99.90
16970;DHT22;8601;48.718;8.992;2022-12-18T04:53:53;-8.30;99.90
16970;DHT22;8601;48.718;8.992;2022-12-18T04:56:21;-8.20;99.90
16970;DHT22;8601;48.718;8.992;2022-12-18T04:58:48;-8.20;99.90
16970;DHT22;8601;48.718;8.992;2022-12-18T05:01:18;-8.10;99.90
16970;DHT22;8601;48.718;8.992;2022-12-18T05:03:46;-8.00;99.90
16970;DHT22;8601;48.718;8.992;2022-12-18T05:06:12;-8.00;99.90
16970;DHT22;8601;48.718;8.992;2022-12-18T05:08:41;-8.10;99.90
16970;DHT22;8601;48.718;8.992;2022-12-18T05:11:11;-8.00;99.90
16970;DHT22;8601;48.718;8.992;2022-12-18T05:13:39;-8.10;99.90
16970;DHT22;8601;48.718;8.992;2022-12-18T05:16:07;-8.00;99.90
16970;DHT22;8601;48.718;8.992;2022-12-18T05:18:34;-8.00;99.90
16970;DHT22;8601;48.718;8.992;2022-12-18T05:21:01;-8.00;99.90
16970;DHT22;8601;48.718;8.992;2022-12-18T05:23:29;-8.00;99.90
16970;DHT22;8601;48.718;8.992;2022-12-18T05:25:59;-8.00;99.90
16970;DHT22;8601;48.718;8.992;2022-12-18T05:28:28;-7.90;99.90
16970;DHT22;8601;48.718;8.992;2022-12-18T05:30:58;-7.90;99.90
16970;DHT22;8601;48.718;8.992;2022-12-18T05:33:27;-7.90;99.90
16970;DHT22;8601;48.718;8.992;2022-12-18T05:35:56;-7.80;99.90
16970;DHT22;8601;48.718;8.992;2022-12-18T05:38:24;-7.70;99.90
16970;DHT22;8601;48.718;8.992;2022-12-18T05:40:53;-7.70;99.90
16970;DHT22;8601;48.718;8.992;2022-12-18T05:43:22;-7.70;99.90
16970;DHT22;8601;48.718;8.992;2022-12-18T05:45:49;-7.70;99.90
16970;DHT22;8601;48.718;8.992;2022-12-18T05:48:16;-7.70;99.90
16970;DHT22;8601;48.718;8.992;2022-12-18T05:50:47;-7.70;99.90
16970;DHT22;8601;48.718;8.992;2022-12-18T05:53:16;-7.60;99.90
16970;DHT22;8601;48.718;8.992;2022-12-18T05:55:44;-7.60;99.90
16970;DHT22;8601;48.718;8.992;2022-12-18T05:58:12;-7.60;99.90
16970;DHT22;8601;48.718;8.992;2022-12-18T06:00:42;-7.70;99.90
16970;DHT22;8601;48.718;8.992;2022-12-18T06:03:10;-7.80;99.90
16970;DHT22;8601;48.718;8.992;2022-12-18T06:05:40;-7.90;99.90
16970;DHT22;8601;48.718;8.992;2022-12-18T06:08:08;-8.00;99.90
16970;DHT22;8601;48.718;8.992;2022-12-18T06:10:35;-8.10;99.90
16970;DHT22;8601;48.718;8.992;2022-12-18T06:13:02;-8.20;99.90
16970;DHT22;8601;48.718;8.992;2022-12-18T06:15:28;-8.20;99.90
16970;DHT22;8601;48.718;8.992;2022-12-18T06:17:57;-8.20;99.90
16970;DHT22;8601;48.718;8.992;2022-12-18T06:20:24;-8.30;99.90
16970;DHT22;8601;48.718;8.992;2022-12-18T06:22:51;-8.30;99.90
16970;DHT22;8601;48.718;8.992;2022-12-18T06:25:18;-8.30;99.90
16970;DHT22;8601;48.718;8.992;2022-12-18T06:27:47;-8.30;99.90
16970;DHT22;8601;48.718;8.992;2022-12-18T06:30:14;-8.30;99.90
16970;DHT22;8601;48.718;8.992;2022-12-18T06:32:41;-8.30;99.90
16970;DHT22;8601;48.718;8.992;2022-12-18T06:35:09;-8.30;99.90
16970;DHT22;8601;48.718;8.992;2022-12-18T06:37:37;-8.30;99.90
16970;DHT22;8601;48.718;8.992;2022-12-18T06:40:04;-8.40;99.90
16970;DHT22;8601;48.718;8.992;2022-12-18T06:42:32;-8.40;99.90
16970;DHT22;8601;48.718;8.992;2022-12-18T06:44:58;-8.50;99.90
16970;DHT22;8601;48.718;8.992;2022-12-18T06:47:25;-8.40;99.90
16970;DHT22;8601;48.718;8.992;2022-12-18T06:49:52;-8.50;99.90
16970;DHT22;8601;48.718;8.992;2022-12-18T06:52:21;-8.50;99.90
16970;DHT22;8601;48.718;8.992;2022-12-18T06:54:48;-8.50;99.90
16970;DHT22;8601;48.718;8.992;2022-12-18T06:57:14;-8.50;99.90
16970;DHT22;8601;48.718;8.992;2022-12-18T06:59:41;-8.50;99.90
16970;DHT22;8601;48.718;8.992;2022-12-18T07:02:11;-8.50;99.90
16970;DHT22;8601;48.718;8.992;2022-12-18T07:04:37;-8.50;99.90
16970;DHT22;8601;48.718;8.992;2022-12-18T07:07:07;-8.60;99.90
16970;DHT22;8601;48.718;8.992;2022-12-18T07:09:35;-8.50;99.90
16970;DHT22;8601;48.718;8.992;2022-12-18T07:12:02;-8.50;99.90
16970;DHT22;8601;48.718;8.992;2022-12-18T07:14:30;-8.40;99.90
16970;DHT22;8601;48.718;8.992;2022-12-18T07:16:57;-8.40;99.90
16970;DHT22;8601;48.718;8.992;2022-12-18T07:19:24;-8.50;99.90
16970;DHT22;8601;48.718;8.992;2022-12-18T07:21:51;-8.40;99.90
16970;DHT22;8601;48.718;8.992;2022-12-18T07:24:18;-8.40;99.90
16970;DHT22;8601;48.718;8.992;2022-12-18T07:26:47;-8.40;99.90
16970;DHT22;8601;48.718;8.992;2022-12-18T07:29:14;-8.40;99.90
16970;DHT22;8601;48.718;8.992;2022-12-18T07:31:43;-8.30;99.90
16970;DHT22;8601;48.718;8.992;2022-12-18T07:34:11;-8.20;99.90
16970;DHT22;8601;48.718;8.992;2022-12-18T07:36:38;-8.20;99.90
16970;DHT22;8601;48.718;8.992;2022-12-18T07:39:05;-8.20;99.90
16970;DHT22;8601;48.718;8.992;2022-12-18T07:41:33;-8.10;99.90
16970;DHT22;8601;48.718;8.992;2022-12-18T07:44:01;-8.20;99.90
16970;DHT22;8601;48.718;8.992;2022-12-18T07:46:28;-8.10;99.90
16970;DHT22;8601;48.718;8.992;2022-12-18T07:48:55;-8.20;99.90
16970;DHT22;8601;48.718;8.992;2022-12-18T07:51:22;-8.10;99.90
16970;DHT22;8601;48.718;8.992;2022-12-18T07:53:59;-8.20;99.90
16970;DHT22;8601;48.718;8.992;2022-12-18T07:56:26;-8.10;99.90
16970;DHT22;8601;48.718;8.992;2022-12-18T07:58:54;-8.00;99.90
16970;DHT22;8601;48.718;8.992;2022-12-18T08:01:28;-7.90;99.90
16970;DHT22;8601;48.718;8.992;2022-12-18T08:03:55;-7.80;99.90
16970;DHT22;8601;48.718;8.992;2022-12-18T08:06:22;-7.80;99.90
16970;DHT22;8601;48.718;8.992;2022-12-18T08:08:51;-7.60;99.90
16970;DHT22;8601;48.718;8.992;2022-12-18T08:11:17;-7.60;99.90
16970;DHT22;8601;48.718;8.992;2022-12-18T08:13:45;-7.50;99.90
16970;DHT22;8601;48.718;8.992;2022-12-18T08:16:13;-7.50;99.90
16970;DHT22;8601;48.718;8.992;2022-12-18T08:18:41;-7.50;99.90
16970;DHT22;8601;48.718;8.992;2022-12-18T08:21:09;-7.50;99.90
16970;DHT22;8601;48.718;8.992;2022-12-18T08:23:36;-7.40;99.90
16970;DHT22;8601;48.718;8.992;2022-12-18T08:26:03;-7.40;99.90
16970;DHT22;8601;48.718;8.992;2022-12-18T08:28:30;-7.30;99.90
16970;DHT22;8601;48.718;8.992;2022-12-18T08:30:58;-7.20;99.90
16970;DHT22;8601;48.718;8.992;2022-12-18T08:33:25;-7.10;99.90
16970;DHT22;8601;48.718;8.992;2022-12-18T08:35:54;-7.00;99.90
16970;DHT22;8601;48.718;8.992;2022-12-18T08:38:20;-7.00;99.90
16970;DHT22;8601;48.718;8.992;2022-12-18T08:40:48;-6.90;99.90
16970;DHT22;8601;48.718;8.992;2022-12-18T08:43:15;-6.80;99.90
16970;DHT22;8601;48.718;8.992;2022-12-18T08:45:59;-6.70;99.90
16970;DHT22;8601;48.718;8.992;2022-12-18T08:48:26;-6.60;99.90
16970;DHT22;8601;48.718;8.992;2022-12-18T08:50:55;-6.40;99.90
16970;DHT22;8601;48.718;8.992;2022-12-18T08:53:23;-6.30;99.90
16970;DHT22;8601;48.718;8.992;2022-12-18T08:55:50;-6.10;99.90
16970;DHT22;8601;48.718;8.992;2022-12-18T08:58:17;-6.00;99.90
16970;DHT22;8601;48.718;8.992;2022-12-18T09:00:44;-5.80;99.90
16970;DHT22;8601;48.718;8.992;2022-12-18T09:03:11;-5.60;99.90
16970;DHT22;8601;48.718;8.992;2022-12-18T09:05:38;-5.50;99.90
16970;DHT22;8601;48.718;8.992;2022-12-18T09:08:07;-5.40;99.90
16970;DHT22;8601;48.718;8.992;2022-12-18T09:10:41;-5.40;99.90
16970;DHT22;8601;48.718;8.992;2022-12-18T09:13:09;-5.30;99.90
16970;DHT22;8601;48.718;8.992;2022-12-18T09:15:40;-5.30;99.90
16970;DHT22;8601;48.718;8.992;2022-12-18T09:18:07;-5.20;99.90
16970;DHT22;8601;48.718;8.992;2022-12-18T09:20:35;-5.20;99.90
16970;DHT22;8601;48.718;8.992;2022-12-18T09:23:02;-5.10;99.90
16970;DHT22;8601;48.718;8.992;2022-12-18T09:25:30;-5.00;99.90
16970;DHT22;8601;48.718;8.992;2022-12-18T09:27:58;-4.90;99.90
16970;DHT22;8601;48.718;8.992;2022-12-18T09:30:25;-5.00;99.90
16970;DHT22;8601;48.718;8.992;2022-12-18T09:32:53;-4.90;99.90
16970;DHT22;8601;48.718;8.992;2022-12-18T09:35:20;-4.90;99.90
16970;DHT22;8601;48.718;8.992;2022-12-18T09:37:47;-4.80;99.90
16970;DHT22;8601;48.718;8.992;2022-12-18T09:40:17;-4.80;99.90
16970;DHT22;8601;48.718;8.992;2022-12-18T09:42:48;-4.70;99.90
16970;DHT22;8601;48.718;8.992;2022-12-18T09:45:18;-4.60;99.90
16970;DHT22;8601;48.718;8.992;2022-12-18T09:47:45;-4.60;99.90
16970;DHT22;8601;48.718;8.992;2022-12-18T09:50:23;-4.50;99.90
16970;DHT22;8601;48.718;8.992;2022-12-18T09:52:54;-4.50;99.90
16970;DHT22;8601;48.718;8.992;2022-12-18T09:55:25;-4.40;99.90
16970;DHT22;8601;48.718;8.992;2022-12-18T09:57:59;-4.40;99.90
16970;DHT22;8601;48.718;8.992;2022-12-18T10:00:28;-4.40;99.90
16970;DHT22;8601;48.718;8.992;2022-12-18T10:03:00;-4.30;99.90
16970;DHT22;8601;48.718;8.992;2022-12-18T10:05:33;-4.20;99.90
16970;DHT22;8601;48.718;8.992;2022-12-18T10:08:05;-4.10;99.90
16970;DHT22;8601;48.718;8.992;2022-12-18T10:10:39;-3.90;99.90
16970;DHT22;8601;48.718;8.992;2022-12-18T10:13:15;-3.80;99.90
16970;DHT22;8601;48.718;8.992;2022-12-18T10:15:54;-3.60;99.90
16970;DHT22;8601;48.718;8.992;2022-12-18T10:18:33;-3.50;99.90
16970;DHT22;8601;48.718;8.992;2022-12-18T10:21:05;-3.20;99.90
16970;DHT22;8601;48.718;8.992;2022-12-18T10:23:42;-2.90;99.90
16970;DHT22;8601;48.718;8.992;2022-12-18T10:26:12;-2.50;99.90
16970;DHT22;8601;48.718;8.992;2022-12-18T10:28:43;-2.00;99.90
16970;DHT22;8601;48.718;8.992;2022-12-18T10:31:15;-0.80;99.90
16970;DHT22;8601;48.718;8.992;2022-12-18T10:33:43;-1.00;99.90
16970;DHT22;8601;48.718;8.992;2022-12-18T10:36:10;-0.90;99.90
16970;DHT22;8601;48.718;8.992;2022-12-18T10:38:37;-0.20;99.90
16970;DHT22;8601;48.718;8.992;2022-12-18T10:41:07;-0.40;99.90
16970;DHT22;8601;48.718;8.992;2022-12-18T10:44:11;-0.60;99.90
16970;DHT22;8601;48.718;8.992;2022-12-18T10:46:38;-0.50;99.90
16970;DHT22;8601;48.718;8.992;2022-12-18T10:49:07;-0.70;99.90
16970;DHT22;8601;48.718;8.992;2022-12-18T10:51:44;-0.90;99.90
16970;DHT22;8601;48.718;8.992;2022-12-18T10:54:14;-0.80;99.90
16970;DHT22;8601;48.718;8.992;2022-12-18T10:56:42;-0.80;99.90
16970;DHT22;8601;48.718;8.992;2022-12-18T10:59:12;-0.90;99.90
16970;DHT22;8601;48.718;8.992;2022-12-18T11:01:48;-0.80;99.90
16970;DHT22;8601;48.718;8.992;2022-12-18T11:04:22;-0.70;99.80
16970;DHT22;8601;48.718;8.992;2022-12-18T11:06:54;-0.60;99.90
16970;DHT22;8601;48.718;8.992;2022-12-18T11:09:23;-0.50;99.20
16970;DHT22;8601;48.718;8.992;2022-12-18T11:11:51;-0.30;99.60
16970;DHT22;8601;48.718;8.992;2022-12-18T11:14:23;-0.30;98.80
16970;DHT22;8601;48.718;8.992;2022-12-18T11:16:52;-0.40;98.70
16970;DHT22;8601;48.718;8.992;2022-12-18T11:19:26;-0.40;99.90
16970;DHT22;8601;48.718;8.992;2022-12-18T11:21:55;-0.30;99.50
16970;DHT22;8601;48.718;8.992;2022-12-18T11:24:28;-0.40;99.80
16970;DHT22;8601;48.718;8.992;2022-12-18T11:26:55;-0.60;98.50
16970;DHT22;8601;48.718;8.992;2022-12-18T11:29:31;-0.70;99.50
16970;DHT22;8601;48.718;8.992;2022-12-18T11:32:22;-0.80;99.60
16970;DHT22;8601;48.718;8.992;2022-12-18T11:34:53;-0.80;99.90
16970;DHT22;8601;48.718;8.992;2022-12-18T11:37:28;-1.00;99.90
16970;DHT22;8601;48.718;8.992;2022-12-18T11:39:58;-1.00;99.90
16970;DHT22;8601;48.718;8.992;2022-12-18T11:42:34;-1.00;99.90
16970;DHT22;8601;48.718;8.992;2022-12-18T11:45:21;-1.00;99.90
16970;DHT22;8601;48.718;8.992;2022-12-18T11:47:55;-0.90;99.90
16970;DHT22;8601;48.718;8.992;2022-12-18T11:50:25;-1.00;99.90
16970;DHT22;8601;48.718;8.992;2022-12-18T11:52:52;-1.00;99.90
16970;DHT22;8601;48.718;8.992;2022-12-18T11:55:29;-1.10;99.90
16970;DHT22;8601;48.718;8.992;2022-12-18T11:58:03;-1.00;99.90
16970;DHT22;8601;48.718;8.992;2022-12-18T12:00:35;-1.20;99.90
16970;DHT22;8601;48.718;8.992;2022-12-18T12:03:27;-1.10;99.90
16970;DHT22;8601;48.718;8.992;2022-12-18T12:06:03;-1.10;99.90
16970;DHT22;8601;48.718;8.992;2022-12-18T12:08:44;-1.10;99.90
16970;DHT22;8601;48.718;8.992;2022-12-18T12:11:23;-1.20;99.90
16970;DHT22;8601;48.718;8.992;2022-12-18T12:14:03;-1.30;99.90
16970;DHT22;8601;48.718;8.992;2022-12-18T12:16:37;-1.30;99.90
16970;DHT22;8601;48.718;8.992;2022-12-18T12:19:19;-1.30;99.90
16970;DHT22;8601;48.718;8.992;2022-12-18T12:21:58;-1.10;99.90
16970;DHT22;8601;48.718;8.992;2022-12-18T12:24:34;-1.20;99.90
16970;DHT22;8601;48.718;8.992;2022-12-18T12:27:10;-1.20;99.90
16970;DHT22;8601;48.718;8.992;2022-12-18T12:29:49;-1.10;99.90
16970;DHT22;8601;48.718;8.992;2022-12-18T12:32:27;-1.20;99.90
16970;DHT22;8601;48.718;8.992;2022-12-18T12:35:08;-1.30;99.90
16970;DHT22;8601;48.718;8.992;2022-12-18T12:37:43;-1.20;99.90
16970;DHT22;8601;48.718;8.992;2022-12-18T12:40:16;-1.20;99.90
16970;DHT22;8601;48.718;8.992;2022-12-18T12:42:50;-1.20;99.90
16970;DHT22;8601;48.718;8.992;2022-12-18T12:45:42;-1.30;99.90
16970;DHT22;8601;48.718;8.992;2022-12-18T12:48:18;-1.20;99.90
16970;DHT22;8601;48.718;8.992;2022-12-18T12:50:46;-1.30;99.90
16970;DHT22;8601;48.718;8.992;2022-12-18T12:53:23;-1.40;99.90
16970;DHT22;8601;48.718;8.992;2022-12-18T12:55:52;-1.30;99.90
16970;DHT22;8601;48.718;8.992;2022-12-18T12:58:26;-1.40;99.90
16970;DHT22;8601;48.718;8.992;2022-12-18T13:01:03;-1.40;99.90
16970;DHT22;8601;48.718;8.992;2022-12-18T13:03:41;-1.30;99.90
16970;DHT22;8601;48.718;8.992;2022-12-18T13:06:13;-1.30;99.90
16970;DHT22;8601;48.718;8.992;2022-12-18T13:08:56;-1.40;99.90
16970;DHT22;8601;48.718;8.992;2022-12-18T13:11:35;-1.20;99.90
16970;DHT22;8601;48.718;8.992;2022-12-18T13:14:23;-1.10;99.90
16970;DHT22;8601;48.718;8.992;2022-12-18T13:16:51;-1.10;99.90
16970;DHT22;8601;48.718;8.992;2022-12-18T13:19:24;-1.20;99.90
16970;DHT22;8601;48.718;8.992;2022-12-18T13:21:54;-1.20;99.90
16970;DHT22;8601;48.718;8.992;2022-12-18T13:24:25;-1.20;99.90
16970;DHT22;8601;48.718;8.992;2022-12-18T13:26:52;-1.10;99.90
16970;DHT22;8601;48.718;8.992;2022-12-18T13:29:41;-1.10;99.90
16970;DHT22;8601;48.718;8.992;2022-12-18T13:32:23;-1.10;99.90
16970;DHT22;8601;48.718;8.992;2022-12-18T13:37:54;-1.30;99.90
16970;DHT22;8601;48.718;8.992;2022-12-18T13:40:55;-1.30;99.90
16970;DHT22;8601;48.718;8.992;2022-12-18T13:43:39;-1.30;99.90
16970;DHT22;8601;48.718;8.992;2022-12-18T13:46:22;-1.30;99.90
16970;DHT22;8601;48.718;8.992;2022-12-18T13:48:54;-1.30;99.90
16970;DHT22;8601;48.718;8.992;2022-12-18T13:51:23;-1.30;99.90
16970;DHT22;8601;48.718;8.992;2022-12-18T13:53:54;-1.30;99.90
16970;DHT22;8601;48.718;8.992;2022-12-18T13:56:24;-1.30;99.90
16970;DHT22;8601;48.718;8.992;2022-12-18T13:59:20;-1.30;99.90
16970;DHT22;8601;48.718;8.992;2022-12-18T14:01:50;-1.30;99.90
16970;DHT22;8601;48.718;8.992;2022-12-18T14:04:24;-1.30;99.90
16970;DHT22;8601;48.718;8.992;2022-12-18T14:06:55;-1.30;99.90
16970;DHT22;8601;48.718;8.992;2022-12-18T14:09:27;-1.40;99.90
16970;DHT22;8601;48.718;8.992;2022-12-18T14:11:55;-1.40;99.90
16970;DHT22;8601;48.718;8.992;2022-12-18T14:14:45;-1.50;99.90
16970;DHT22;8601;48.718;8.992;2022-12-18T14:17:15;-1.50;99.90
16970;DHT22;8601;48.718;8.992;2022-12-18T14:19:44;-1.50;99.90
16970;DHT22;8601;48.718;8.992;2022-12-18T14:22:17;-1.50;99.90
16970;DHT22;8601;48.718;8.992;2022-12-18T14:24:46;-1.50;99.90
16970;DHT22;8601;48.718;8.992;2022-12-18T14:27:21;-1.60;99.90
16970;DHT22;8601;48.718;8.992;2022-12-18T14:29:49;-1.60;99.90
16970;DHT22;8601;48.718;8.992;2022-12-18T14:32:17;-1.60;99.90
16970;DHT22;8601;48.718;8.992;2022-12-18T14:34:45;-1.60;99.90
16970;DHT22;8601;48.718;8.992;2022-12-18T14:37:14;-1.70;99.90
16970;DHT22;8601;48.718;8.992;2022-12-18T14:39:54;-1.70;99.90
16970;DHT22;8601;48.718;8.992;2022-12-18T14:42:22;-1.70;99.90
16970;DHT22;8601;48.718;8.992;2022-12-18T14:47:53;-1.90;99.90
16970;DHT22;8601;48.718;8.992;2022-12-18T14:50:20;-1.90;99.90
16970;DHT22;8601;48.718;8.992;2022-12-18T14:52:47;-1.90;99.90
16970;DHT22;8601;48.718;8.992;2022-12-18T14:55:17;-1.90;99.90
16970;DHT22;8601;48.718;8.992;2022-12-18T14:57:44;-2.00;99.90
16970;DHT22;8601;48.718;8.992;2022-12-18T15:00:16;-2.10;99.90
16970;DHT22;8601;48.718;8.992;2022-12-18T15:02:52;-2.20;99.90
16970;DHT22;8601;48.718;8.992;2022-12-18T15:05:26;-2.20;99.90
16970;DHT22;8601;48.718;8.992;2022-12-18T15:07:55;-2.20;99.90
16970;DHT22;8601;48.718;8.992;2022-12-18T15:10:25;-2.30;99.90
16970;DHT22;8601;48.718;8.992;2022-12-18T15:13:07;-2.40;99.90
16970;DHT22;8601;48.718;8.992;2022-12-18T15:15:45;-2.40;99.90
16970;DHT22;8601;48.718;8.992;2022-12-18T15:18:14;-2.40;99.90
16970;DHT22;8601;48.718;8.992;2022-12-18T15:20:44;-2.50;99.90
16970;DHT22;8601;48.718;8.992;2022-12-18T15:23:27;-2.50;99.90
16970;DHT22;8601;48.718;8.992;2022-12-18T15:26:00;-2.60;99.90
16970;DHT22;8601;48.718;8.992;2022-12-18T15:28:36;-2.60;99.90
16970;DHT22;8601;48.718;8.992;2022-12-18T15:31:21;-2.70;99.90
16970;DHT22;8601;48.718;8.992;2022-12-18T15:34:10;-2.70;99.90
16970;DHT22;8601;48.718;8.992;2022-12-18T15:36:39;-2.70;99.90
16970;DHT22;8601;48.718;8.992;2022-12-18T15:39:11;-2.70;99.90
16970;DHT22;8601;48.718;8.992;2022-12-18T15:41:40;-2.80;99.90
16970;DHT22;8601;48.718;8.992;2022-12-18T15:44:27;-2.80;99.90
16970;DHT22;8601;48.718;8.992;2022-12-18T15:47:00;-2.90;99.90
16970;DHT22;8601;48.718;8.992;2022-12-18T15:49:27;-2.90;99.90
16970;DHT22;8601;48.718;8.992;2022-12-18T15:51:57;-3.00;99.90
16970;DHT22;8601;48.718;8.992;2022-12-18T15:54:24;-2.90;99.90
16970;DHT22;8601;48.718;8.992;2022-12-18T15:57:09;-3.00;99.90
16970;DHT22;8601;48.718;8.992;2022-12-18T15:59:53;-3.10;99.90
16970;DHT22;8601;48.718;8.992;2022-12-18T16:02:22;-3.10;99.90
16970;DHT22;8601;48.718;8.992;2022-12-18T16:04:50;-3.10;99.90
16970;DHT22;8601;48.718;8.992;2022-12-18T16:07:18;-3.20;99.90
16970;DHT22;8601;48.718;8.992;2022-12-18T16:09:48;-3.20;99.90
16970;DHT22;8601;48.718;8.992;2022-12-18T16:12:18;-3.10;99.90
16970;DHT22;8601;48.718;8.992;2022-12-18T16:14:46;-3.20;99.90
16970;DHT22;8601;48.718;8.992;2022-12-18T16:17:13;-3.20;99.90
16970;DHT22;8601;48.718;8.992;2022-12-18T16:19:44;-3.20;99.90